Naknek, Alaska
Current Conditions -  °F | °C
As of 6:56 AM on Friday 19 Dec 2014 (Local Time) from PFWS Reporting Station
Overcast Overcast  
Wind Chill: 11°   Ceiling: 7000
Heat Index: 24°   Visibility: 10mi
Dew Point: 20°   Wind: 16mph
Humidity: 84%   Direction: 30°NNE
Pressure: 29.03"   Gusts: NA
Location:  58.73°N, 157.02°W
Report Text: PFWS 191556Z AUTO 03014KT 10SM FEW055 BKN070 OVC090 M04/M07 A2903 RMK AO2 SLP835 T10441067 FZRANO
Loading
Personal Weather Stations






























Interactive Weather Map New forecast layout! Learn more

10-Day Weather Forecast

Advertisements
Track Severe Weather on mobile